sensor_id;sensor_type;location;lat;lon;timestamp;P1;durP1;ratioP1;P2;durP2;ratioP2
10509;SDS011;5303;53.266;10.410;2023-02-11T00:01:36;49.63;;;28.87;;
10509;SDS011;5303;53.266;10.410;2023-02-11T00:04:01;56.00;;;29.63;;
10509;SDS011;5303;53.266;10.410;2023-02-11T00:06:28;52.83;;;30.10;;
10509;SDS011;5303;53.266;10.410;2023-02-11T00:08:54;52.70;;;30.03;;
10509;SDS011;5303;53.266;10.410;2023-02-11T00:11:21;52.13;;;30.47;;
10509;SDS011;5303;53.266;10.410;2023-02-11T00:13:49;54.33;;;30.40;;
10509;SDS011;5303;53.266;10.410;2023-02-11T00:16:15;56.13;;;32.23;;
10509;SDS011;5303;53.266;10.410;2023-02-11T00:18:43;59.77;;;33.47;;
10509;SDS011;5303;53.266;10.410;2023-02-11T00:21:10;55.23;;;31.93;;
10509;SDS011;5303;53.266;10.410;2023-02-11T00:23:38;56.13;;;32.83;;
10509;SDS011;5303;53.266;10.410;2023-02-11T00:26:04;63.70;;;33.60;;
10509;SDS011;5303;53.266;10.410;2023-02-11T00:28:36;62.30;;;33.67;;
10509;SDS011;5303;53.266;10.410;2023-02-11T00:31:01;61.43;;;33.77;;
10509;SDS011;5303;53.266;10.410;2023-02-11T00:33:26;60.47;;;34.23;;
10509;SDS011;5303;53.266;10.410;2023-02-11T00:35:52;56.10;;;32.57;;
10509;SDS011;5303;53.266;10.410;2023-02-11T00:38:17;61.10;;;33.87;;
10509;SDS011;5303;53.266;10.410;2023-02-11T00:40:42;61.40;;;33.80;;
10509;SDS011;5303;53.266;10.410;2023-02-11T00:43:08;54.83;;;32.87;;
10509;SDS011;5303;53.266;10.410;2023-02-11T00:45:33;57.90;;;33.87;;
10509;SDS011;5303;53.266;10.410;2023-02-11T00:47:58;60.73;;;33.73;;
10509;SDS011;5303;53.266;10.410;2023-02-11T00:50:23;53.60;;;32.37;;
10509;SDS011;5303;53.266;10.410;2023-02-11T00:52:49;59.80;;;32.67;;
10509;SDS011;5303;53.266;10.410;2023-02-11T00:55:14;58.67;;;34.63;;
10509;SDS011;5303;53.266;10.410;2023-02-11T00:57:40;61.90;;;33.90;;
10509;SDS011;5303;53.266;10.410;2023-02-11T01:00:07;62.03;;;33.87;;
10509;SDS011;5303;53.266;10.410;2023-02-11T01:02:33;57.30;;;33.50;;
10509;SDS011;5303;53.266;10.410;2023-02-11T01:04:59;60.47;;;34.00;;
10509;SDS011;5303;53.266;10.410;2023-02-11T01:07:25;56.00;;;33.33;;
10509;SDS011;5303;53.266;10.410;2023-02-11T01:09:51;56.93;;;32.37;;
10509;SDS011;5303;53.266;10.410;2023-02-11T01:12:16;57.67;;;32.10;;
10509;SDS011;5303;53.266;10.410;2023-02-11T01:14:42;57.07;;;32.33;;
10509;SDS011;5303;53.266;10.410;2023-02-11T01:17:08;62.00;;;34.23;;
10509;SDS011;5303;53.266;10.410;2023-02-11T01:19:33;59.53;;;32.73;;
10509;SDS011;5303;53.266;10.410;2023-02-11T01:22:00;56.07;;;33.60;;
10509;SDS011;5303;53.266;10.410;2023-02-11T01:24:25;54.27;;;33.03;;
10509;SDS011;5303;53.266;10.410;2023-02-11T01:26:50;58.47;;;32.83;;
10509;SDS011;5303;53.266;10.410;2023-02-11T01:29:16;56.27;;;32.10;;
10509;SDS011;5303;53.266;10.410;2023-02-11T01:31:41;58.63;;;32.83;;
10509;SDS011;5303;53.266;10.410;2023-02-11T01:34:06;57.40;;;33.93;;
10509;SDS011;5303;53.266;10.410;2023-02-11T01:36:32;61.67;;;33.10;;
10509;SDS011;5303;53.266;10.410;2023-02-11T01:38:57;58.00;;;33.17;;
10509;SDS011;5303;53.266;10.410;2023-02-11T01:41:22;63.60;;;33.30;;
10509;SDS011;5303;53.266;10.410;2023-02-11T01:43:48;58.83;;;32.63;;
10509;SDS011;5303;53.266;10.410;2023-02-11T01:48:55;60.63;;;33.23;;
10509;SDS011;5303;53.266;10.410;2023-02-11T01:51:26;55.67;;;33.60;;
10509;SDS011;5303;53.266;10.410;2023-02-11T01:53:56;64.27;;;35.00;;
10509;SDS011;5303;53.266;10.410;2023-02-11T01:56:42;63.57;;;34.60;;
10509;SDS011;5303;53.266;10.410;2023-02-11T01:59:30;60.97;;;32.77;;
10509;SDS011;5303;53.266;10.410;2023-02-11T02:01:59;57.47;;;32.37;;
10509;SDS011;5303;53.266;10.410;2023-02-11T02:04:31;59.93;;;33.17;;
10509;SDS011;5303;53.266;10.410;2023-02-11T02:07:07;54.90;;;32.97;;
10509;SDS011;5303;53.266;10.410;2023-02-11T02:09:41;59.80;;;33.77;;
10509;SDS011;5303;53.266;10.410;2023-02-11T02:12:10;57.70;;;32.13;;
10509;SDS011;5303;53.266;10.410;2023-02-11T02:14:39;59.10;;;32.03;;
10509;SDS011;5303;53.266;10.410;2023-02-11T02:17:05;56.97;;;31.50;;
10509;SDS011;5303;53.266;10.410;2023-02-11T02:22:30;57.47;;;32.33;;
10509;SDS011;5303;53.266;10.410;2023-02-11T02:25:26;54.93;;;31.00;;
10509;SDS011;5303;53.266;10.410;2023-02-11T02:34:08;57.80;;;32.80;;
10509;SDS011;5303;53.266;10.410;2023-02-11T02:36:44;60.53;;;33.03;;
10509;SDS011;5303;53.266;10.410;2023-02-11T02:39:20;53.10;;;31.47;;
10509;SDS011;5303;53.266;10.410;2023-02-11T02:41:50;61.07;;;32.80;;
10509;SDS011;5303;53.266;10.410;2023-02-11T02:44:18;58.47;;;33.27;;
10509;SDS011;5303;53.266;10.410;2023-02-11T02:46:44;59.03;;;32.10;;
10509;SDS011;5303;53.266;10.410;2023-02-11T02:49:11;60.83;;;31.63;;
10509;SDS011;5303;53.266;10.410;2023-02-11T02:55:02;66.63;;;33.23;;
10509;SDS011;5303;53.266;10.410;2023-02-11T02:57:49;56.13;;;31.20;;
10509;SDS011;5303;53.266;10.410;2023-02-11T03:00:42;57.50;;;31.97;;
10509;SDS011;5303;53.266;10.410;2023-02-11T03:03:48;53.90;;;32.00;;
10509;SDS011;5303;53.266;10.410;2023-02-11T03:06:29;55.63;;;31.40;;
10509;SDS011;5303;53.266;10.410;2023-02-11T03:09:03;63.77;;;32.80;;
10509;SDS011;5303;53.266;10.410;2023-02-11T03:11:33;61.07;;;33.73;;
10509;SDS011;5303;53.266;10.410;2023-02-11T03:14:01;59.70;;;32.47;;
10509;SDS011;5303;53.266;10.410;2023-02-11T03:16:28;66.80;;;34.90;;
10509;SDS011;5303;53.266;10.410;2023-02-11T03:19:04;61.17;;;32.30;;
10509;SDS011;5303;53.266;10.410;2023-02-11T03:21:36;62.07;;;34.03;;
10509;SDS011;5303;53.266;10.410;2023-02-11T03:24:05;58.70;;;32.13;;
10509;SDS011;5303;53.266;10.410;2023-02-11T03:26:36;66.93;;;34.40;;
10509;SDS011;5303;53.266;10.410;2023-02-11T03:32:11;63.00;;;32.00;;
10509;SDS011;5303;53.266;10.410;2023-02-11T03:34:43;56.97;;;32.07;;
10509;SDS011;5303;53.266;10.410;2023-02-11T03:39:55;63.83;;;34.00;;
10509;SDS011;5303;53.266;10.410;2023-02-11T03:42:25;57.57;;;33.00;;
10509;SDS011;5303;53.266;10.410;2023-02-11T03:44:57;63.03;;;32.37;;
10509;SDS011;5303;53.266;10.410;2023-02-11T03:47:27;59.30;;;32.60;;
10509;SDS011;5303;53.266;10.410;2023-02-11T03:49:56;62.27;;;33.10;;
10509;SDS011;5303;53.266;10.410;2023-02-11T03:52:24;57.70;;;32.97;;
10509;SDS011;5303;53.266;10.410;2023-02-11T03:54:52;56.53;;;31.77;;
10509;SDS011;5303;53.266;10.410;2023-02-11T03:57:21;57.63;;;31.50;;
10509;SDS011;5303;53.266;10.410;2023-02-11T03:59:50;57.87;;;31.20;;
10509;SDS011;5303;53.266;10.410;2023-02-11T04:02:21;57.20;;;33.17;;
10509;SDS011;5303;53.266;10.410;2023-02-11T04:04:48;60.73;;;34.33;;
10509;SDS011;5303;53.266;10.410;2023-02-11T04:07:13;57.30;;;31.43;;
10509;SDS011;5303;53.266;10.410;2023-02-11T04:09:38;61.93;;;32.77;;
10509;SDS011;5303;53.266;10.410;2023-02-11T04:12:04;57.17;;;32.63;;
10509;SDS011;5303;53.266;10.410;2023-02-11T04:14:29;55.40;;;30.63;;
10509;SDS011;5303;53.266;10.410;2023-02-11T04:16:55;54.60;;;30.83;;
10509;SDS011;5303;53.266;10.410;2023-02-11T04:19:20;57.50;;;30.50;;
10509;SDS011;5303;53.266;10.410;2023-02-11T04:21:45;52.07;;;31.03;;
10509;SDS011;5303;53.266;10.410;2023-02-11T04:24:11;57.90;;;30.47;;
10509;SDS011;5303;53.266;10.410;2023-02-11T04:26:36;57.17;;;30.07;;
10509;SDS011;5303;53.266;10.410;2023-02-11T04:29:01;59.27;;;30.80;;
10509;SDS011;5303;53.266;10.410;2023-02-11T04:31:26;48.33;;;29.00;;
10509;SDS011;5303;53.266;10.410;2023-02-11T04:33:52;54.63;;;27.60;;
10509;SDS011;5303;53.266;10.410;2023-02-11T04:36:17;55.63;;;30.37;;
10509;SDS011;5303;53.266;10.410;2023-02-11T04:38:42;49.03;;;29.03;;
10509;SDS011;5303;53.266;10.410;2023-02-11T04:41:08;51.60;;;28.47;;
10509;SDS011;5303;53.266;10.410;2023-02-11T04:43:33;47.70;;;28.03;;
10509;SDS011;5303;53.266;10.410;2023-02-11T04:45:59;47.97;;;28.13;;
10509;SDS011;5303;53.266;10.410;2023-02-11T04:48:24;49.40;;;28.40;;
10509;SDS011;5303;53.266;10.410;2023-02-11T04:50:50;44.77;;;26.37;;
10509;SDS011;5303;53.266;10.410;2023-02-11T04:53:15;49.20;;;28.77;;
10509;SDS011;5303;53.266;10.410;2023-02-11T04:55:41;49.20;;;26.90;;
10509;SDS011;5303;53.266;10.410;2023-02-11T04:58:06;49.93;;;28.17;;
10509;SDS011;5303;53.266;10.410;2023-02-11T05:00:31;54.17;;;27.87;;
10509;SDS011;5303;53.266;10.410;2023-02-11T05:02:56;48.20;;;26.60;;
10509;SDS011;5303;53.266;10.410;2023-02-11T05:05:22;43.93;;;25.80;;
10509;SDS011;5303;53.266;10.410;2023-02-11T05:07:47;45.10;;;26.40;;
10509;SDS011;5303;53.266;10.410;2023-02-11T05:10:12;41.53;;;24.07;;
10509;SDS011;5303;53.266;10.410;2023-02-11T05:12:38;53.30;;;27.07;;
10509;SDS011;5303;53.266;10.410;2023-02-11T05:15:03;45.10;;;24.87;;
10509;SDS011;5303;53.266;10.410;2023-02-11T05:17:29;40.23;;;24.57;;
10509;SDS011;5303;53.266;10.410;2023-02-11T05:19:54;44.83;;;24.67;;
10509;SDS011;5303;53.266;10.410;2023-02-11T05:22:19;48.23;;;25.17;;
10509;SDS011;5303;53.266;10.410;2023-02-11T05:24:46;46.60;;;24.73;;
10509;SDS011;5303;53.266;10.410;2023-02-11T05:27:11;39.03;;;23.37;;
10509;SDS011;5303;53.266;10.410;2023-02-11T05:29:36;40.87;;;23.90;;
10509;SDS011;5303;53.266;10.410;2023-02-11T05:32:02;37.83;;;22.23;;
10509;SDS011;5303;53.266;10.410;2023-02-11T05:34:27;40.17;;;22.03;;
10509;SDS011;5303;53.266;10.410;2023-02-11T05:36:52;40.67;;;22.40;;
10509;SDS011;5303;53.266;10.410;2023-02-11T05:39:18;42.60;;;22.57;;
10509;SDS011;5303;53.266;10.410;2023-02-11T05:41:43;41.60;;;22.63;;
10509;SDS011;5303;53.266;10.410;2023-02-11T05:44:08;37.37;;;21.47;;
10509;SDS011;5303;53.266;10.410;2023-02-11T05:46:34;39.60;;;21.90;;
10509;SDS011;5303;53.266;10.410;2023-02-11T05:48:59;35.13;;;21.47;;
10509;SDS011;5303;53.266;10.410;2023-02-11T05:51:25;33.70;;;20.67;;
10509;SDS011;5303;53.266;10.410;2023-02-11T05:53:50;38.43;;;22.07;;
10509;SDS011;5303;53.266;10.410;2023-02-11T05:56:15;39.10;;;22.20;;
10509;SDS011;5303;53.266;10.410;2023-02-11T05:58:41;37.50;;;20.97;;
10509;SDS011;5303;53.266;10.410;2023-02-11T06:01:06;35.23;;;19.83;;
10509;SDS011;5303;53.266;10.410;2023-02-11T06:03:31;35.20;;;20.30;;
10509;SDS011;5303;53.266;10.410;2023-02-11T06:05:56;32.63;;;20.10;;
10509;SDS011;5303;53.266;10.410;2023-02-11T06:08:22;40.20;;;20.20;;
10509;SDS011;5303;53.266;10.410;2023-02-11T06:10:47;29.67;;;19.93;;
10509;SDS011;5303;53.266;10.410;2023-02-11T06:13:12;31.30;;;19.13;;
10509;SDS011;5303;53.266;10.410;2023-02-11T06:15:38;34.47;;;19.00;;
10509;SDS011;5303;53.266;10.410;2023-02-11T06:18:03;30.43;;;19.20;;
10509;SDS011;5303;53.266;10.410;2023-02-11T06:20:29;33.93;;;19.43;;
10509;SDS011;5303;53.266;10.410;2023-02-11T06:22:54;31.70;;;18.63;;
10509;SDS011;5303;53.266;10.410;2023-02-11T06:25:19;31.50;;;17.80;;
10509;SDS011;5303;53.266;10.410;2023-02-11T06:27:44;27.17;;;18.07;;
10509;SDS011;5303;53.266;10.410;2023-02-11T06:30:10;32.60;;;19.10;;
10509;SDS011;5303;53.266;10.410;2023-02-11T06:32:37;33.93;;;18.43;;
10509;SDS011;5303;53.266;10.410;2023-02-11T06:35:02;31.63;;;16.87;;
10509;SDS011;5303;53.266;10.410;2023-02-11T06:37:28;25.90;;;17.03;;
10509;SDS011;5303;53.266;10.410;2023-02-11T06:39:53;29.27;;;17.73;;
10509;SDS011;5303;53.266;10.410;2023-02-11T06:42:18;28.40;;;16.70;;
10509;SDS011;5303;53.266;10.410;2023-02-11T06:44:43;32.47;;;18.03;;
10509;SDS011;5303;53.266;10.410;2023-02-11T06:47:09;30.27;;;16.80;;
10509;SDS011;5303;53.266;10.410;2023-02-11T06:49:34;26.03;;;17.00;;
10509;SDS011;5303;53.266;10.410;2023-02-11T06:52:00;24.33;;;16.23;;
10509;SDS011;5303;53.266;10.410;2023-02-11T06:54:25;26.63;;;17.40;;
10509;SDS011;5303;53.266;10.410;2023-02-11T06:56:50;27.00;;;16.30;;
10509;SDS011;5303;53.266;10.410;2023-02-11T06:59:16;27.60;;;16.00;;
10509;SDS011;5303;53.266;10.410;2023-02-11T07:01:44;27.87;;;14.83;;
10509;SDS011;5303;53.266;10.410;2023-02-11T07:04:10;27.67;;;15.27;;
10509;SDS011;5303;53.266;10.410;2023-02-11T07:06:35;25.10;;;15.50;;
10509;SDS011;5303;53.266;10.410;2023-02-11T07:09:01;25.30;;;15.13;;
10509;SDS011;5303;53.266;10.410;2023-02-11T07:11:28;31.00;;;14.40;;
10509;SDS011;5303;53.266;10.410;2023-02-11T07:13:55;25.93;;;15.70;;
10509;SDS011;5303;53.266;10.410;2023-02-11T07:16:25;26.57;;;15.43;;
10509;SDS011;5303;53.266;10.410;2023-02-11T07:18:50;27.37;;;15.87;;
10509;SDS011;5303;53.266;10.410;2023-02-11T07:21:17;24.17;;;15.40;;
10509;SDS011;5303;53.266;10.410;2023-02-11T07:23:44;23.67;;;14.87;;
10509;SDS011;5303;53.266;10.410;2023-02-11T07:26:10;26.40;;;13.80;;
10509;SDS011;5303;53.266;10.410;2023-02-11T07:28:38;21.23;;;14.37;;
10509;SDS011;5303;53.266;10.410;2023-02-11T07:31:11;24.20;;;14.87;;
10509;SDS011;5303;53.266;10.410;2023-02-11T07:33:38;23.10;;;13.93;;
10509;SDS011;5303;53.266;10.410;2023-02-11T07:36:05;23.40;;;13.60;;
10509;SDS011;5303;53.266;10.410;2023-02-11T07:38:32;26.67;;;14.40;;
10509;SDS011;5303;53.266;10.410;2023-02-11T07:40:59;21.67;;;13.13;;
10509;SDS011;5303;53.266;10.410;2023-02-11T07:43:25;23.13;;;13.53;;
10509;SDS011;5303;53.266;10.410;2023-02-11T07:45:50;27.47;;;14.60;;
10509;SDS011;5303;53.266;10.410;2023-02-11T07:48:15;22.57;;;13.83;;
10509;SDS011;5303;53.266;10.410;2023-02-11T07:50:41;24.30;;;14.20;;
10509;SDS011;5303;53.266;10.410;2023-02-11T07:53:06;25.97;;;15.00;;
10509;SDS011;5303;53.266;10.410;2023-02-11T07:55:32;25.37;;;15.13;;
10509;SDS011;5303;53.266;10.410;2023-02-11T07:57:57;26.07;;;14.93;;
10509;SDS011;5303;53.266;10.410;2023-02-11T08:00:22;30.33;;;15.57;;
10509;SDS011;5303;53.266;10.410;2023-02-11T08:02:48;25.83;;;14.60;;
10509;SDS011;5303;53.266;10.410;2023-02-11T08:05:13;24.70;;;14.90;;
10509;SDS011;5303;53.266;10.410;2023-02-11T08:07:38;23.17;;;14.87;;
10509;SDS011;5303;53.266;10.410;2023-02-11T08:10:04;23.37;;;14.20;;
10509;SDS011;5303;53.266;10.410;2023-02-11T08:12:29;26.43;;;15.13;;
10509;SDS011;5303;53.266;10.410;2023-02-11T08:14:55;22.40;;;14.07;;
10509;SDS011;5303;53.266;10.410;2023-02-11T08:17:20;22.07;;;13.23;;
10509;SDS011;5303;53.266;10.410;2023-02-11T08:19:45;23.10;;;14.97;;
10509;SDS011;5303;53.266;10.410;2023-02-11T08:22:11;20.73;;;12.70;;
10509;SDS011;5303;53.266;10.410;2023-02-11T08:24:36;24.70;;;13.93;;
10509;SDS011;5303;53.266;10.410;2023-02-11T08:27:01;21.50;;;12.97;;
10509;SDS011;5303;53.266;10.410;2023-02-11T08:29:27;22.60;;;13.90;;
10509;SDS011;5303;53.266;10.410;2023-02-11T08:31:52;21.63;;;13.13;;
10509;SDS011;5303;53.266;10.410;2023-02-11T08:34:17;21.73;;;12.87;;
10509;SDS011;5303;53.266;10.410;2023-02-11T08:36:43;21.90;;;13.23;;
10509;SDS011;5303;53.266;10.410;2023-02-11T08:39:12;17.53;;;12.23;;
10509;SDS011;5303;53.266;10.410;2023-02-11T08:41:39;19.17;;;12.57;;
10509;SDS011;5303;53.266;10.410;2023-02-11T08:44:05;21.67;;;12.77;;
10509;SDS011;5303;53.266;10.410;2023-02-11T08:46:30;24.60;;;12.87;;
10509;SDS011;5303;53.266;10.410;2023-02-11T08:48:55;19.63;;;12.73;;
10509;SDS011;5303;53.266;10.410;2023-02-11T08:51:23;19.33;;;11.43;;
10509;SDS011;5303;53.266;10.410;2023-02-11T08:53:53;17.83;;;12.17;;
10509;SDS011;5303;53.266;10.410;2023-02-11T08:56:20;20.97;;;11.77;;
10509;SDS011;5303;53.266;10.410;2023-02-11T08:58:48;16.87;;;11.87;;
10509;SDS011;5303;53.266;10.410;2023-02-11T09:01:21;19.87;;;12.03;;
10509;SDS011;5303;53.266;10.410;2023-02-11T09:03:48;19.90;;;11.93;;
10509;SDS011;5303;53.266;10.410;2023-02-11T09:06:14;20.03;;;11.97;;
10509;SDS011;5303;53.266;10.410;2023-02-11T09:08:42;18.20;;;11.70;;
10509;SDS011;5303;53.266;10.410;2023-02-11T09:11:09;19.97;;;11.53;;
10509;SDS011;5303;53.266;10.410;2023-02-11T09:13:35;18.23;;;10.97;;
10509;SDS011;5303;53.266;10.410;2023-02-11T09:16:01;18.20;;;12.33;;
10509;SDS011;5303;53.266;10.410;2023-02-11T09:18:28;19.83;;;11.63;;
10509;SDS011;5303;53.266;10.410;2023-02-11T09:21:00;16.67;;;11.27;;
10509;SDS011;5303;53.266;10.410;2023-02-11T09:23:30;20.33;;;11.33;;
10509;SDS011;5303;53.266;10.410;2023-02-11T09:25:58;15.13;;;10.80;;
10509;SDS011;5303;53.266;10.410;2023-02-11T09:28:23;21.37;;;12.67;;
10509;SDS011;5303;53.266;10.410;2023-02-11T09:30:49;18.67;;;11.03;;
10509;SDS011;5303;53.266;10.410;2023-02-11T09:33:14;18.87;;;11.90;;
10509;SDS011;5303;53.266;10.410;2023-02-11T09:35:39;20.00;;;10.37;;
10509;SDS011;5303;53.266;10.410;2023-02-11T09:38:04;18.67;;;10.93;;
10509;SDS011;5303;53.266;10.410;2023-02-11T09:40:29;14.33;;;11.00;;
10509;SDS011;5303;53.266;10.410;2023-02-11T09:43:11;17.73;;;11.67;;
10509;SDS011;5303;53.266;10.410;2023-02-11T09:45:43;19.90;;;11.13;;
10509;SDS011;5303;53.266;10.410;2023-02-11T09:48:11;16.90;;;10.97;;
10509;SDS011;5303;53.266;10.410;2023-02-11T09:50:41;16.00;;;11.30;;
10509;SDS011;5303;53.266;10.410;2023-02-11T09:56:08;17.07;;;10.87;;
10509;SDS011;5303;53.266;10.410;2023-02-11T09:58:37;14.77;;;10.00;;
10509;SDS011;5303;53.266;10.410;2023-02-11T10:03:37;16.17;;;10.50;;
10509;SDS011;5303;53.266;10.410;2023-02-11T10:11:46;15.07;;;9.90;;
10509;SDS011;5303;53.266;10.410;2023-02-11T10:14:35;15.53;;;10.77;;
10509;SDS011;5303;53.266;10.410;2023-02-11T10:22:51;15.70;;;10.00;;
10509;SDS011;5303;53.266;10.410;2023-02-11T10:27:49;15.47;;;9.87;;
10509;SDS011;5303;53.266;10.410;2023-02-11T10:33:02;15.33;;;9.03;;
10509;SDS011;5303;53.266;10.410;2023-02-11T10:35:35;14.00;;;8.53;;
10509;SDS011;5303;53.266;10.410;2023-02-11T10:38:02;10.30;;;8.30;;
10509;SDS011;5303;53.266;10.410;2023-02-11T10:40:28;14.13;;;8.57;;
10509;SDS011;5303;53.266;10.410;2023-02-11T10:42:55;13.50;;;9.60;;
10509;SDS011;5303;53.266;10.410;2023-02-11T10:45:38;13.37;;;8.60;;
10509;SDS011;5303;53.266;10.410;2023-02-11T10:51:11;10.97;;;7.93;;
10509;SDS011;5303;53.266;10.410;2023-02-11T10:53:40;15.03;;;9.07;;
10509;SDS011;5303;53.266;10.410;2023-02-11T10:56:06;13.87;;;8.37;;
10509;SDS011;5303;53.266;10.410;2023-02-11T10:58:44;10.20;;;8.53;;
10509;SDS011;5303;53.266;10.410;2023-02-11T11:01:18;15.37;;;8.60;;
10509;SDS011;5303;53.266;10.410;2023-02-11T11:03:46;15.10;;;8.83;;
10509;SDS011;5303;53.266;10.410;2023-02-11T11:06:16;12.87;;;8.20;;
10509;SDS011;5303;53.266;10.410;2023-02-11T11:08:54;13.20;;;7.93;;
10509;SDS011;5303;53.266;10.410;2023-02-11T11:11:20;13.00;;;8.47;;
10509;SDS011;5303;53.266;10.410;2023-02-11T11:18:50;12.37;;;8.33;;
10509;SDS011;5303;53.266;10.410;2023-02-11T11:24:31;14.10;;;8.70;;
10509;SDS011;5303;53.266;10.410;2023-02-11T11:27:03;13.40;;;8.87;;
10509;SDS011;5303;53.266;10.410;2023-02-11T11:29:32;12.73;;;8.00;;
10509;SDS011;5303;53.266;10.410;2023-02-11T11:34:56;13.20;;;8.07;;
10509;SDS011;5303;53.266;10.410;2023-02-11T11:37:27;9.27;;;7.60;;
10509;SDS011;5303;53.266;10.410;2023-02-11T11:42:24;12.73;;;8.00;;
10509;SDS011;5303;53.266;10.410;2023-02-11T11:45:00;14.37;;;8.60;;
10509;SDS011;5303;53.266;10.410;2023-02-11T11:47:47;12.63;;;8.00;;
10509;SDS011;5303;53.266;10.410;2023-02-11T11:53:13;11.97;;;7.77;;
10509;SDS011;5303;53.266;10.410;2023-02-11T11:58:28;14.10;;;7.93;;
10509;SDS011;5303;53.266;10.410;2023-02-11T12:01:01;11.00;;;7.47;;
10509;SDS011;5303;53.266;10.410;2023-02-11T12:06:48;17.33;;;8.10;;
10509;SDS011;5303;53.266;10.410;2023-02-11T12:15:13;14.30;;;8.67;;
10509;SDS011;5303;53.266;10.410;2023-02-11T12:17:56;14.60;;;8.47;;
10509;SDS011;5303;53.266;10.410;2023-02-11T12:20:44;12.43;;;8.67;;
10509;SDS011;5303;53.266;10.410;2023-02-11T12:23:46;15.97;;;8.57;;
10509;SDS011;5303;53.266;10.410;2023-02-11T12:26:22;14.57;;;8.30;;
10509;SDS011;5303;53.266;10.410;2023-02-11T12:35:00;15.27;;;8.47;;
10509;SDS011;5303;53.266;10.410;2023-02-11T12:54:53;13.83;;;8.37;;
10509;SDS011;5303;53.266;10.410;2023-02-11T12:57:23;15.40;;;8.70;;
10509;SDS011;5303;53.266;10.410;2023-02-11T12:59:59;13.80;;;8.90;;
10509;SDS011;5303;53.266;10.410;2023-02-11T13:02:48;14.67;;;8.33;;
10509;SDS011;5303;53.266;10.410;2023-02-11T13:10:46;15.33;;;7.90;;
10509;SDS011;5303;53.266;10.410;2023-02-11T13:16:04;14.30;;;8.37;;
10509;SDS011;5303;53.266;10.410;2023-02-11T13:18:45;13.77;;;8.30;;
10509;SDS011;5303;53.266;10.410;2023-02-11T13:21:28;12.93;;;7.43;;
10509;SDS011;5303;53.266;10.410;2023-02-11T13:24:18;11.93;;;6.90;;
10509;SDS011;5303;53.266;10.410;2023-02-11T13:26:59;10.90;;;7.43;;
10509;SDS011;5303;53.266;10.410;2023-02-11T13:32:13;12.30;;;7.10;;
10509;SDS011;5303;53.266;10.410;2023-02-11T13:37:53;10.33;;;6.30;;
10509;SDS011;5303;53.266;10.410;2023-02-11T13:45:31;11.53;;;7.90;;
10509;SDS011;5303;53.266;10.410;2023-02-11T13:50:47;9.90;;;6.13;;
10509;SDS011;5303;53.266;10.410;2023-02-11T13:53:14;7.57;;;5.10;;
10509;SDS011;5303;53.266;10.410;2023-02-11T13:55:43;6.50;;;4.73;;
10509;SDS011;5303;53.266;10.410;2023-02-11T14:09:46;9.90;;;4.77;;
10509;SDS011;5303;53.266;10.410;2023-02-11T14:11:47;8.23;;;4.57;;
10509;SDS011;5303;53.266;10.410;2023-02-11T14:27:17;7.33;;;4.70;;
10509;SDS011;5303;53.266;10.410;2023-02-11T14:30:06;8.07;;;4.90;;
10509;SDS011;5303;53.266;10.410;2023-02-11T14:32:38;6.70;;;5.20;;
10509;SDS011;5303;53.266;10.410;2023-02-11T14:35:27;11.00;;;6.20;;
10509;SDS011;5303;53.266;10.410;2023-02-11T14:38:32;9.37;;;5.47;;
10509;SDS011;5303;53.266;10.410;2023-02-11T14:41:23;8.93;;;7.00;;
10509;SDS011;5303;53.266;10.410;2023-02-11T14:43:53;10.73;;;6.67;;
10509;SDS011;5303;53.266;10.410;2023-02-11T14:46:22;7.80;;;5.00;;
10509;SDS011;5303;53.266;10.410;2023-02-11T14:48:51;9.70;;;5.50;;
10509;SDS011;5303;53.266;10.410;2023-02-11T14:51:20;9.87;;;7.03;;
10509;SDS011;5303;53.266;10.410;2023-02-11T14:53:50;9.23;;;5.70;;
10509;SDS011;5303;53.266;10.410;2023-02-11T14:56:21;10.23;;;6.20;;
10509;SDS011;5303;53.266;10.410;2023-02-11T14:58:51;10.27;;;7.90;;
10509;SDS011;5303;53.266;10.410;2023-02-11T15:04:00;10.57;;;7.03;;
10509;SDS011;5303;53.266;10.410;2023-02-11T15:11:39;11.13;;;6.60;;
10509;SDS011;5303;53.266;10.410;2023-02-11T15:14:08;9.70;;;6.20;;
10509;SDS011;5303;53.266;10.410;2023-02-11T15:16:41;16.17;;;10.90;;
10509;SDS011;5303;53.266;10.410;2023-02-11T15:19:14;9.73;;;6.47;;
10509;SDS011;5303;53.266;10.410;2023-02-11T15:21:47;10.03;;;7.57;;
10509;SDS011;5303;53.266;10.410;2023-02-11T15:24:22;10.17;;;6.40;;
10509;SDS011;5303;53.266;10.410;2023-02-11T15:26:55;8.77;;;6.60;;
10509;SDS011;5303;53.266;10.410;2023-02-11T15:29:22;15.40;;;7.03;;
10509;SDS011;5303;53.266;10.410;2023-02-11T15:32:03;10.07;;;7.50;;
10509;SDS011;5303;53.266;10.410;2023-02-11T15:34:29;8.33;;;6.63;;
10509;SDS011;5303;53.266;10.410;2023-02-11T15:36:55;10.43;;;6.40;;
10509;SDS011;5303;53.266;10.410;2023-02-11T15:39:28;11.27;;;9.07;;
10509;SDS011;5303;53.266;10.410;2023-02-11T15:42:14;10.63;;;6.90;;
10509;SDS011;5303;53.266;10.410;2023-02-11T15:47:37;13.40;;;6.77;;
10509;SDS011;5303;53.266;10.410;2023-02-11T15:50:04;13.73;;;8.47;;
10509;SDS011;5303;53.266;10.410;2023-02-11T15:52:30;33.73;;;21.20;;
10509;SDS011;5303;53.266;10.410;2023-02-11T15:54:56;13.27;;;9.10;;
10509;SDS011;5303;53.266;10.410;2023-02-11T15:57:24;10.80;;;7.13;;
10509;SDS011;5303;53.266;10.410;2023-02-11T15:59:50;24.03;;;18.57;;
10509;SDS011;5303;53.266;10.410;2023-02-11T16:02:25;9.73;;;6.47;;
10509;SDS011;5303;53.266;10.410;2023-02-11T16:04:59;11.17;;;7.60;;
10509;SDS011;5303;53.266;10.410;2023-02-11T16:07:43;11.53;;;7.63;;
10509;SDS011;5303;53.266;10.410;2023-02-11T16:12:52;11.30;;;7.93;;
10509;SDS011;5303;53.266;10.410;2023-02-11T16:17:57;17.87;;;9.63;;
10509;SDS011;5303;53.266;10.410;2023-02-11T16:20:24;15.07;;;7.90;;
10509;SDS011;5303;53.266;10.410;2023-02-11T16:22:49;14.67;;;7.83;;
10509;SDS011;5303;53.266;10.410;2023-02-11T16:25:21;40.27;;;22.57;;
10509;SDS011;5303;53.266;10.410;2023-02-11T16:27:47;25.60;;;13.87;;
10509;SDS011;5303;53.266;10.410;2023-02-11T16:30:37;16.43;;;7.73;;
10509;SDS011;5303;53.266;10.410;2023-02-11T16:33:04;10.07;;;6.50;;
10509;SDS011;5303;53.266;10.410;2023-02-11T16:35:30;27.10;;;16.10;;
10509;SDS011;5303;53.266;10.410;2023-02-11T16:37:55;18.73;;;12.40;;
10509;SDS011;5303;53.266;10.410;2023-02-11T16:40:20;20.47;;;11.70;;
10509;SDS011;5303;53.266;10.410;2023-02-11T16:42:47;15.17;;;9.40;;
10509;SDS011;5303;53.266;10.410;2023-02-11T16:45:13;13.10;;;7.87;;
10509;SDS011;5303;53.266;10.410;2023-02-11T16:47:39;17.80;;;10.10;;
10509;SDS011;5303;53.266;10.410;2023-02-11T16:50:07;11.60;;;6.03;;
10509;SDS011;5303;53.266;10.410;2023-02-11T16:52:35;20.17;;;11.83;;
10509;SDS011;5303;53.266;10.410;2023-02-11T16:55:01;14.73;;;7.43;;
10509;SDS011;5303;53.266;10.410;2023-02-11T16:57:29;22.03;;;10.43;;
10509;SDS011;5303;53.266;10.410;2023-02-11T16:59:55;14.53;;;7.83;;
10509;SDS011;5303;53.266;10.410;2023-02-11T17:02:27;19.67;;;10.27;;
10509;SDS011;5303;53.266;10.410;2023-02-11T17:04:57;17.70;;;11.43;;
10509;SDS011;5303;53.266;10.410;2023-02-11T17:07:24;21.27;;;11.97;;
10509;SDS011;5303;53.266;10.410;2023-02-11T17:09:51;32.83;;;20.23;;
10509;SDS011;5303;53.266;10.410;2023-02-11T17:12:16;22.00;;;11.63;;
10509;SDS011;5303;53.266;10.410;2023-02-11T17:14:42;43.10;;;25.50;;
10509;SDS011;5303;53.266;10.410;2023-02-11T17:17:08;25.47;;;13.00;;